Time;durP1;ratioP1;P1;durP2;ratioP2;P2;SDS_P1;SDS_P2;PMS_P1;PMS_P2;Temp;Humidity;BMP_temperature;BMP_pressure;BME280_temperature;BME280_humidity;BME280_pressure;Samples;Min_cycle;Max_cycle;Signal;HPM_P1;HPM_P2
2022/02/20 00:00:29;;;;;;;0.00;0.00;;;;;21.70;99959.00;;;;5046867;28;20049;-80
2022/02/20 00:02:59;;;;;;;0.00;0.00;;;;;21.70;99963.00;;;;5046685;28;20041;-80
2022/02/20 00:05:28;;;;;;;0.00;0.00;;;;;21.70;99970.00;;;;5044972;28;20091;-80
2022/02/20 00:07:58;;;;;;;0.00;0.00;;;;;21.70;99984.00;;;;5046485;28;20554;-79
2022/02/20 00:10:27;;;;;;;0.00;0.00;;;;;21.60;99990.00;;;;5046540;28;20051;-80
2022/02/20 00:12:57;;;;;;;0.00;0.00;;;;;21.50;99980.00;;;;5046370;28;20213;-79
2022/02/20 00:15:27;;;;;;;0.00;0.00;;;;;21.40;99979.00;;;;5045535;28;20060;-79
2022/02/20 00:17:58;;;;;;;0.00;0.00;;;;;21.30;99995.00;;;;5047152;28;20052;-79
2022/02/20 00:20:30;;;;;;;0.00;0.00;;;;;21.20;99996.00;;;;5046737;28;20071;-79
2022/02/20 00:23:02;;;;;;;0.00;0.00;;;;;21.10;99995.00;;;;5046885;28;20515;-79
2022/02/20 00:25:34;;;;;;;0.00;0.00;;;;;21.20;99995.00;;;;5062504;28;20049;-79
2022/02/20 00:28:05;;;;;;;0.00;0.00;;;;;21.10;99989.00;;;;5055362;28;20469;-79
2022/02/20 00:30:34;;;;;;;0.00;0.00;;;;;21.00;100001.00;;;;5047314;28;20061;-79
2022/02/20 00:33:04;;;;;;;0.00;0.00;;;;;20.90;100004.00;;;;5046304;28;20102;-79
2022/02/20 00:35:34;;;;;;;0.00;0.00;;;;;20.90;99995.00;;;;5046233;28;20056;-80
2022/02/20 00:38:05;;;;;;;0.00;0.00;;;;;21.00;100001.00;;;;5046211;28;20099;-80
2022/02/20 00:40:36;;;;;;;0.00;0.00;;;;;21.10;100005.00;;;;5045186;28;20072;-79
2022/02/20 00:43:06;;;;;;;0.00;0.00;;;;;21.10;99997.00;;;;5047048;28;20053;-79
2022/02/20 00:45:36;;;;;;;0.00;0.00;;;;;21.10;100000.00;;;;5046103;28;20692;-80
2022/02/20 00:48:05;;;;;;;0.00;0.00;;;;;21.00;100008.00;;;;5046573;28;20053;-80
2022/02/20 00:50:35;;;;;;;0.00;0.00;;;;;20.90;100006.00;;;;5045219;28;20056;-79
2022/02/20 00:53:05;;;;;;;0.00;0.00;;;;;21.00;100011.00;;;;5044502;28;20514;-79
2022/02/20 00:55:34;;;;;;;0.00;0.00;;;;;21.00;100016.00;;;;5040981;28;20049;-79
2022/02/20 00:58:04;;;;;;;0.00;0.00;;;;;21.00;100016.00;;;;5042521;28;20053;-79
2022/02/20 01:00:33;;;;;;;0.00;0.00;;;;;21.00;100015.00;;;;5041987;28;20407;-80
2022/02/20 01:03:03;;;;;;;0.00;0.00;;;;;21.00;100007.00;;;;5046513;28;20051;-79
2022/02/20 01:05:33;;;;;;;0.00;0.00;;;;;21.00;100013.00;;;;5046048;28;20045;-79
2022/02/20 01:08:02;;;;;;;0.00;0.00;;;;;21.10;100009.00;;;;5046159;28;20053;-79
2022/02/20 01:10:32;;;;;;;0.00;0.00;;;;;21.00;100035.00;;;;5044338;28;20064;-79
2022/02/20 01:13:04;;;;;;;0.00;0.00;;;;;20.90;100040.00;;;;5044729;28;20086;-80
2022/02/20 01:15:34;;;;;;;0.00;0.00;;;;;20.90;100027.00;;;;5044781;28;20045;-79
2022/02/20 01:18:05;;;;;;;0.00;0.00;;;;;20.90;100033.00;;;;5046070;28;20102;-79
2022/02/20 01:20:34;;;;;;;3.35;1.55;;;;;20.80;100033.00;;;;5045694;28;20114;-79
2022/02/20 01:23:05;;;;;;;0.00;0.00;;;;;20.80;100032.00;;;;5044324;28;20057;-79
2022/02/20 01:25:34;;;;;;;0.00;0.00;;;;;20.70;100034.00;;;;5047807;28;20071;-79
2022/02/20 01:28:04;;;;;;;0.00;0.00;;;;;20.60;100036.00;;;;5049392;28;20123;-79
2022/02/20 01:30:33;;;;;;;0.00;0.00;;;;;20.50;100029.00;;;;5048395;28;20049;-80
2022/02/20 01:33:03;;;;;;;0.00;0.00;;;;;20.50;100039.00;;;;5049629;28;20455;-81
2022/02/20 01:35:32;;;;;;;0.00;0.00;;;;;20.60;100029.00;;;;5049441;28;20064;-79
2022/02/20 01:38:02;;;;;;;0.00;0.00;;;;;20.50;100038.00;;;;5049472;28;20080;-80
2022/02/20 01:40:31;;;;;;;0.00;0.00;;;;;20.40;100033.00;;;;5048270;28;20067;-79
2022/02/20 01:43:10;;;;;;;0.00;0.00;;;;;20.50;100044.00;;;;5047861;28;20049;-79
2022/02/20 01:45:41;;;;;;;0.00;0.00;;;;;20.50;100044.00;;;;5049241;28;20045;-80
2022/02/20 01:48:14;;;;;;;0.00;0.00;;;;;20.40;100060.00;;;;5047744;28;20049;-80
2022/02/20 01:50:47;;;;;;;0.00;0.00;;;;;20.40;100041.00;;;;5048095;28;20064;-79
2022/02/20 01:53:18;;;;;;;0.00;0.00;;;;;20.40;100060.00;;;;5048069;28;20051;-79
2022/02/20 01:55:49;;;;;;;0.00;0.00;;;;;20.40;100040.00;;;;5047662;28;20053;-79
2022/02/20 01:58:30;;;;;;;0.00;0.00;;;;;20.40;100038.00;;;;5047521;28;20060;-79
2022/02/20 02:01:19;;;;;;;0.00;0.00;;;;;20.40;100059.00;;;;5048818;28;20087;-79
2022/02/20 02:04:01;;;;;;;0.00;0.00;;;;;20.50;100046.00;;;;5047618;28;20045;-79
2022/02/20 02:06:54;;;;;;;0.30;0.30;;;;;20.40;100057.00;;;;5048587;28;20524;-80
2022/02/20 02:09:46;;;;;;;0.00;0.00;;;;;20.40;100055.00;;;;5048403;28;20051;-81
2022/02/20 02:12:36;;;;;;;0.00;0.00;;;;;20.40;100057.00;;;;5049040;28;20060;-80
2022/02/20 02:15:14;;;;;;;0.00;0.00;;;;;20.30;100050.00;;;;5048654;28;20095;-78
2022/02/20 02:18:07;;;;;;;0.00;0.00;;;;;20.20;100049.00;;;;5048689;28;20053;-79
2022/02/20 02:20:55;;;;;;;0.00;0.00;;;;;20.20;100057.00;;;;5048611;28;20427;-79
2022/02/20 02:23:48;;;;;;;0.00;0.00;;;;;20.20;100054.00;;;;5046806;28;20045;-80
2022/02/20 02:26:36;;;;;;;0.00;0.00;;;;;20.30;100055.00;;;;5048937;28;20060;-79
2022/02/20 02:29:20;;;;;;;0.00;0.00;;;;;20.30;100068.00;;;;5046880;28;20567;-79
2022/02/20 02:31:50;;;;;;;0.00;0.00;;;;;20.30;100050.00;;;;5046563;28;20519;-79
2022/02/20 02:34:20;;;;;;;0.00;0.00;;;;;20.30;100060.00;;;;5030907;28;20041;-80
2022/02/20 02:36:53;;;;;;;0.00;0.00;;;;;20.40;100062.00;;;;5046791;28;20136;-80
2022/02/20 02:39:23;;;;;;;0.00;0.00;;;;;20.40;100063.00;;;;5047139;28;20056;-82
2022/02/20 02:41:53;;;;;;;0.00;0.00;;;;;20.30;100050.00;;;;5046991;28;20519;-81
2022/02/20 02:44:23;;;;;;;0.00;0.00;;;;;20.30;100049.00;;;;5046580;28;20059;-82
2022/02/20 02:46:52;;;;;;;0.20;0.20;;;;;20.20;100048.00;;;;5048469;28;20045;-80
2022/02/20 02:49:22;;;;;;;0.00;0.00;;;;;20.20;100049.00;;;;5046867;28;20063;-80
2022/02/20 02:51:52;;;;;;;0.00;0.00;;;;;20.20;100053.00;;;;5049254;28;20120;-80
2022/02/20 02:54:22;;;;;;;0.00;0.00;;;;;20.10;100043.00;;;;5068035;28;20037;-79
2022/02/20 02:56:53;;;;;;;0.00;0.00;;;;;20.10;100046.00;;;;5051423;28;20136;-80
2022/02/20 02:59:25;;;;;;;0.00;0.00;;;;;20.00;100054.00;;;;5046654;28;20691;-80
2022/02/20 03:01:58;;;;;;;0.10;0.10;;;;;20.00;100068.00;;;;5046865;28;20534;-80
2022/02/20 03:04:28;;;;;;;0.00;0.00;;;;;20.00;100048.00;;;;5046532;28;20470;-81
2022/02/20 03:06:58;;;;;;;0.00;0.00;;;;;20.00;100066.00;;;;5046354;28;20142;-78
2022/02/20 03:09:28;;;;;;;0.00;0.00;;;;;19.90;100057.00;;;;5046206;28;20049;-78
2022/02/20 03:11:58;;;;;;;0.00;0.00;;;;;19.90;100048.00;;;;5046525;28;20053;-80
2022/02/20 03:14:27;;;;;;;0.00;0.00;;;;;20.00;100055.00;;;;5047819;28;20502;-79
2022/02/20 03:16:58;;;;;;;0.00;0.00;;;;;19.90;100036.00;;;;5046260;28;20053;-78
2022/02/20 03:19:27;;;;;;;0.00;0.00;;;;;19.80;100049.00;;;;5047763;28;20500;-78
2022/02/20 03:21:56;;;;;;;0.00;0.00;;;;;19.70;100054.00;;;;5047048;28;20041;-79
2022/02/20 03:24:26;;;;;;;0.00;0.00;;;;;19.60;100043.00;;;;5046809;28;20061;-78
2022/02/20 03:26:55;;;;;;;0.00;0.00;;;;;19.60;100038.00;;;;5046352;28;20454;-79
2022/02/20 03:29:32;;;;;;;0.00;0.00;;;;;19.50;100050.00;;;;5046249;28;20056;-78
2022/02/20 03:32:03;;;;;;;0.00;0.00;;;;;19.50;100041.00;;;;5045807;28;20040;-79
2022/02/20 03:34:32;;;;;;;0.00;0.00;;;;;19.40;100039.00;;;;5046010;28;20565;-79
2022/02/20 03:37:02;;;;;;;0.00;0.00;;;;;19.40;100037.00;;;;5046175;28;20075;-79
2022/02/20 03:39:35;;;;;;;0.00;0.00;;;;;19.30;100039.00;;;;5045428;28;20549;-78
2022/02/20 03:42:08;;;;;;;0.00;0.00;;;;;19.20;100046.00;;;;5045890;28;20541;-79
2022/02/20 03:45:00;;;;;;;0.00;0.00;;;;;19.20;100043.00;;;;5043631;28;20076;-79
2022/02/20 03:47:34;;;;;;;0.00;0.00;;;;;19.20;100044.00;;;;5045684;28;20049;-81
2022/02/20 03:50:05;;;;;;;0.00;0.00;;;;;19.20;100040.00;;;;5047260;28;20124;-81
2022/02/20 03:52:41;;;;;;;0.00;0.00;;;;;19.10;100031.00;;;;5045939;28;20139;-79
2022/02/20 03:55:17;;;;;;;0.00;0.00;;;;;19.00;100030.00;;;;5044309;28;20565;-81
2022/02/20 03:57:49;;;;;;;0.00;0.00;;;;;19.00;100037.00;;;;5045806;28;20432;-79
2022/02/20 04:00:32;;;;;;;0.00;0.00;;;;;19.00;100043.00;;;;5045770;28;20059;-78
2022/02/20 04:03:14;;;;;;;0.00;0.00;;;;;19.00;100025.00;;;;5046989;28;20045;-78
2022/02/20 04:05:48;;;;;;;0.00;0.00;;;;;19.00;100019.00;;;;5045245;28;20155;-81
2022/02/20 04:08:18;;;;;;;0.00;0.00;;;;;18.90;100030.00;;;;5045622;28;20049;-78
2022/02/20 04:10:51;;;;;;;0.00;0.00;;;;;18.90;100030.00;;;;5045078;28;20056;-79
2022/02/20 04:13:40;;;;;;;0.00;0.00;;;;;18.90;100023.00;;;;5046353;28;20049;-78
2022/02/20 04:16:19;;;;;;;0.00;0.00;;;;;18.90;100027.00;;;;5044942;28;20099;-79
2022/02/20 04:18:53;;;;;;;0.00;0.00;;;;;18.80;100012.00;;;;5045262;28;20049;-78
2022/02/20 04:21:26;;;;;;;0.00;0.00;;;;;18.80;100005.00;;;;5045285;28;20140;-81
2022/02/20 04:24:07;;;;;;;0.00;0.00;;;;;18.80;99995.00;;;;5045408;28;20053;-77
2022/02/20 04:26:37;;;;;;;0.00;0.00;;;;;18.80;100003.00;;;;5044992;28;20141;-81
2022/02/20 04:29:09;;;;;;;0.00;0.00;;;;;18.80;99991.00;;;;5045680;28;20075;-81
2022/02/20 04:31:39;;;;;;;0.00;0.00;;;;;18.90;99990.00;;;;5045145;28;20516;-79
2022/02/20 04:34:09;;;;;;;0.00;0.00;;;;;18.80;99977.00;;;;5045303;28;20055;-80
2022/02/20 04:36:39;;;;;;;0.00;0.00;;;;;18.90;99972.00;;;;5044807;28;20528;-80
2022/02/20 04:39:09;;;;;;;0.00;0.00;;;;;19.00;99977.00;;;;5044594;28;20057;-79
2022/02/20 04:41:44;;;;;;;0.00;0.00;;;;;19.00;99968.00;;;;5044569;28;20516;-79
2022/02/20 04:44:26;;;;;;;0.00;0.00;;;;;18.90;99984.00;;;;5030084;28;20055;-79
2022/02/20 04:46:57;;;;;;;0.00;0.00;;;;;18.80;99975.00;;;;5044816;28;20115;-80
2022/02/20 04:49:27;;;;;;;0.00;0.00;;;;;18.80;99961.00;;;;5044482;28;20118;-79
2022/02/20 04:52:12;;;;;;;0.00;0.00;;;;;18.80;99966.00;;;;5045493;28;20073;-79
2022/02/20 04:55:01;;;;;;;0.00;0.00;;;;;18.80;99978.00;;;;5044516;28;20101;-79
2022/02/20 04:57:36;;;;;;;0.00;0.00;;;;;18.70;99963.00;;;;5045031;28;20049;-78
2022/02/20 05:00:14;;;;;;;0.32;0.10;;;;;18.80;99958.00;;;;5045433;28;20858;-80
2022/02/20 05:03:04;;;;;;;0.00;0.00;;;;;18.80;99960.00;;;;5059180;28;20626;-79
2022/02/20 05:05:54;;;;;;;0.28;0.28;;;;;18.80;99961.00;;;;5048991;28;20053;-79
2022/02/20 05:08:59;;;;;;;0.00;0.00;;;;;18.90;99936.00;;;;5027582;28;20452;-80
2022/02/20 05:11:42;;;;;;;0.00;0.00;;;;;18.90;99951.00;;;;5045125;28;20103;-80
2022/02/20 05:14:12;;;;;;;0.00;0.00;;;;;18.80;99957.00;;;;5048685;28;20512;-79
2022/02/20 05:16:45;;;;;;;0.00;0.00;;;;;18.80;99948.00;;;;5048343;28;20045;-79
2022/02/20 05:19:23;;;;;;;0.28;0.28;;;;;18.70;99947.00;;;;5048750;28;20053;-80
2022/02/20 05:21:56;;;;;;;0.00;0.00;;;;;18.70;99944.00;;;;5048630;28;20144;-80
2022/02/20 05:24:33;;;;;;;0.00;0.00;;;;;18.70;99941.00;;;;5048033;28;20527;-79
2022/02/20 05:27:03;;;;;;;0.00;0.00;;;;;18.70;99926.00;;;;5064473;28;20569;-79
2022/02/20 05:29:38;;;;;;;0.00;0.00;;;;;18.70;99927.00;;;;5061679;28;20041;-80
2022/02/20 05:32:09;;;;;;;0.00;0.00;;;;;18.70;99937.00;;;;5048447;28;20045;-79
2022/02/20 05:34:53;;;;;;;0.00;0.00;;;;;18.70;99935.00;;;;5048695;28;20094;-79
2022/02/20 05:37:25;;;;;;;0.00;0.00;;;;;18.60;99931.00;;;;5047862;28;20094;-79
2022/02/20 05:39:55;;;;;;;0.00;0.00;;;;;18.60;99925.00;;;;5048007;28;20132;-80
2022/02/20 05:42:25;;;;;;;0.00;0.00;;;;;18.60;99927.00;;;;5047496;28;20049;-79
2022/02/20 05:45:04;;;;;;;0.00;0.00;;;;;18.60;99929.00;;;;5047890;28;20084;-79
2022/02/20 05:47:35;;;;;;;0.00;0.00;;;;;18.40;99916.00;;;;5048280;28;20057;-79
2022/02/20 05:50:10;;;;;;;0.00;0.00;;;;;18.50;99910.00;;;;5047882;28;20159;-79
2022/02/20 05:52:45;;;;;;;0.00;0.00;;;;;18.50;99937.00;;;;5048412;28;20048;-80
2022/02/20 05:55:17;;;;;;;0.00;0.00;;;;;18.50;99921.00;;;;5047825;28;20110;-78
2022/02/20 05:57:53;;;;;;;0.00;0.00;;;;;18.50;99911.00;;;;5048365;28;20750;-79
2022/02/20 06:00:37;;;;;;;0.00;0.00;;;;;18.50;99910.00;;;;5048339;28;20068;-79
2022/02/20 06:03:07;;;;;;;0.00;0.00;;;;;18.40;99910.00;;;;5047022;28;20053;-79
2022/02/20 06:05:50;;;;;;;0.00;0.00;;;;;18.40;99903.00;;;;5047300;28;20131;-79
2022/02/20 06:08:24;;;;;;;0.00;0.00;;;;;18.30;99924.00;;;;5047540;28;20466;-81
2022/02/20 06:10:58;;;;;;;0.00;0.00;;;;;18.30;99921.00;;;;5047402;28;20080;-78
2022/02/20 06:13:46;;;;;;;0.00;0.00;;;;;18.30;99915.00;;;;5048924;28;20059;-79
2022/02/20 06:16:34;;;;;;;0.00;0.00;;;;;18.20;99924.00;;;;5048288;28;20155;-79
2022/02/20 06:19:17;;;;;;;0.00;0.00;;;;;18.20;99914.00;;;;5048352;28;20500;-78
2022/02/20 06:22:04;;;;;;;0.00;0.00;;;;;18.20;99907.00;;;;5048830;28;20126;-80
2022/02/20 06:24:45;;;;;;;0.00;0.00;;;;;18.20;99916.00;;;;5047666;28;20067;-80
2022/02/20 06:27:38;;;;;;;0.00;0.00;;;;;18.20;99907.00;;;;5045215;28;20500;-79
2022/02/20 06:30:27;;;;;;;0.00;0.00;;;;;18.20;99905.00;;;;5047404;28;20041;-79
2022/02/20 06:32:57;;;;;;;0.00;0.00;;;;;18.20;99902.00;;;;5047197;28;20041;-79
2022/02/20 06:35:28;;;;;;;0.00;0.00;;;;;18.10;99910.00;;;;5048521;28;20053;-80
2022/02/20 06:37:57;;;;;;;0.00;0.00;;;;;18.10;99900.00;;;;5047049;28;20118;-80
2022/02/20 06:40:27;;;;;;;0.00;0.00;;;;;18.10;99917.00;;;;5046546;28;21141;-79
2022/02/20 06:42:57;;;;;;;0.00;0.00;;;;;18.00;99898.00;;;;5047977;28;20088;-80
2022/02/20 06:45:28;;;;;;;0.00;0.00;;;;;18.00;99900.00;;;;5047062;28;20055;-80
2022/02/20 06:48:16;;;;;;;0.00;0.00;;;;;17.90;99904.00;;;;5048000;28;20546;-80
2022/02/20 06:51:09;;;;;;;0.00;0.00;;;;;17.90;99904.00;;;;5047707;28;20094;-80
2022/02/20 06:53:57;;;;;;;0.00;0.00;;;;;17.90;99908.00;;;;5048174;28;20048;-79
2022/02/20 06:56:49;;;;;;;0.00;0.00;;;;;17.90;99905.00;;;;5047766;28;20053;-78
2022/02/20 06:59:19;;;;;;;0.00;0.00;;;;;17.90;99890.00;;;;5046389;28;20060;-78
2022/02/20 07:01:50;;;;;;;0.00;0.00;;;;;17.90;99891.00;;;;5047760;28;20049;-79
2022/02/20 07:04:20;;;;;;;0.00;0.00;;;;;17.90;99886.00;;;;5048308;28;20546;-79
2022/02/20 07:06:49;;;;;;;0.00;0.00;;;;;17.80;99893.00;;;;5047386;28;20056;-80
2022/02/20 07:09:19;;;;;;;0.13;0.13;;;;;17.80;99895.00;;;;5048122;28;20095;-79
2022/02/20 07:11:48;;;;;;;0.00;0.00;;;;;17.90;99878.00;;;;5047757;28;20504;-79
2022/02/20 07:14:18;;;;;;;0.00;0.00;;;;;17.80;99892.00;;;;5048227;28;20039;-79
2022/02/20 07:16:49;;;;;;;0.00;0.00;;;;;17.80;99899.00;;;;5047615;28;20049;-79
2022/02/20 07:19:19;;;;;;;0.00;0.00;;;;;17.70;99903.00;;;;5047339;28;20045;-79
2022/02/20 07:21:48;;;;;;;0.00;0.00;;;;;17.80;99892.00;;;;5047787;28;20045;-80
2022/02/20 07:24:19;;;;;;;0.00;0.00;;;;;17.70;99911.00;;;;5045868;28;20056;-79
2022/02/20 07:26:49;;;;;;;0.00;0.00;;;;;17.70;99927.00;;;;5047723;28;20064;-79
2022/02/20 07:29:18;;;;;;;0.00;0.00;;;;;17.60;99923.00;;;;5046971;28;20614;-79
2022/02/20 07:31:48;;;;;;;0.00;0.00;;;;;17.60;99910.00;;;;5047059;28;20044;-80
2022/02/20 07:34:17;;;;;;;0.00;0.00;;;;;17.60;99913.00;;;;5046939;28;20044;-79
2022/02/20 07:36:47;;;;;;;0.00;0.00;;;;;17.60;99921.00;;;;5047702;28;20071;-80
2022/02/20 07:39:16;;;;;;;0.00;0.00;;;;;17.70;99909.00;;;;5047578;28;20103;-79
2022/02/20 07:41:46;;;;;;;0.00;0.00;;;;;17.70;99921.00;;;;5046982;28;20143;-79
2022/02/20 07:44:16;;;;;;;0.00;0.00;;;;;17.70;99902.00;;;;5046773;28;20514;-80
2022/02/20 07:46:45;;;;;;;0.00;0.00;;;;;17.60;99910.00;;;;5046678;28;20048;-79
2022/02/20 07:49:15;;;;;;;0.00;0.00;;;;;17.50;99917.00;;;;5047936;28;20124;-80
2022/02/20 07:51:45;;;;;;;0.00;0.00;;;;;17.50;99915.00;;;;5047080;28;20155;-80
2022/02/20 07:54:14;;;;;;;0.00;0.00;;;;;17.50;99926.00;;;;5047036;28;20055;-77
2022/02/20 07:56:44;;;;;;;0.00;0.00;;;;;17.50;99929.00;;;;5047123;28;20041;-78
2022/02/20 07:59:13;;;;;;;0.00;0.00;;;;;17.50;99923.00;;;;5046573;28;20055;-79
2022/02/20 08:01:42;;;;;;;0.00;0.00;;;;;17.40;99922.00;;;;5046544;28;20507;-79
2022/02/20 08:04:12;;;;;;;0.00;0.00;;;;;17.40;99907.00;;;;5047028;28;20052;-79
2022/02/20 08:06:42;;;;;;;0.00;0.00;;;;;17.40;99921.00;;;;5064964;28;20051;-80
2022/02/20 08:09:11;;;;;;;0.00;0.00;;;;;17.30;99916.00;;;;5054818;28;20037;-79
2022/02/20 08:11:40;;;;;;;0.00;0.00;;;;;17.20;99920.00;;;;5047134;28;20045;-78
2022/02/20 08:14:10;;;;;;;0.00;0.00;;;;;17.30;99928.00;;;;5047228;28;20060;-79
2022/02/20 08:16:39;;;;;;;0.00;0.00;;;;;17.30;99912.00;;;;5046487;28;20045;-78
2022/02/20 08:19:09;;;;;;;0.90;0.45;;;;;17.40;99914.00;;;;5046493;28;20055;-79
2022/02/20 08:21:38;;;;;;;0.00;0.00;;;;;17.40;99918.00;;;;5047011;28;20059;-78
2022/02/20 08:24:08;;;;;;;0.00;0.00;;;;;17.30;99910.00;;;;5046418;28;20057;-79
2022/02/20 08:26:37;;;;;;;0.00;0.00;;;;;17.40;99911.00;;;;5046836;28;20102;-78
2022/02/20 08:29:07;;;;;;;0.00;0.00;;;;;17.40;99906.00;;;;5044889;28;20049;-79
2022/02/20 08:31:36;;;;;;;0.00;0.00;;;;;17.40;99914.00;;;;5046665;28;20389;-79
2022/02/20 08:34:06;;;;;;;0.00;0.00;;;;;17.40;99924.00;;;;5046483;28;20052;-77
2022/02/20 08:36:36;;;;;;;0.00;0.00;;;;;17.40;99921.00;;;;5046169;28;20119;-80
2022/02/20 08:39:06;;;;;;;0.10;0.10;;;;;17.30;99915.00;;;;5046393;28;20068;-78
2022/02/20 08:41:35;;;;;;;0.00;0.00;;;;;17.30;99926.00;;;;5028160;28;20061;-79
2022/02/20 08:44:05;;;;;;;0.00;0.00;;;;;17.30;99916.00;;;;5046195;28;20102;-80
2022/02/20 08:46:35;;;;;;;0.00;0.00;;;;;17.30;99912.00;;;;5046185;28;20495;-78
2022/02/20 08:49:04;;;;;;;0.00;0.00;;;;;17.20;99918.00;;;;5045595;28;20110;-79
2022/02/20 08:51:33;;;;;;;0.00;0.00;;;;;17.20;99920.00;;;;5046680;28;20614;-80
2022/02/20 08:54:03;;;;;;;0.00;0.00;;;;;17.20;99916.00;;;;5046027;28;20492;-79
2022/02/20 08:56:32;;;;;;;0.00;0.00;;;;;17.20;99903.00;;;;5045619;28;20053;-79
2022/02/20 08:59:02;;;;;;;0.00;0.00;;;;;17.10;99926.00;;;;5046115;28;20057;-78
2022/02/20 09:01:31;;;;;;;0.00;0.00;;;;;17.10;99928.00;;;;5045718;28;20522;-80
2022/02/20 09:04:04;;;;;;;0.00;0.00;;;;;17.00;99929.00;;;;5046408;28;20087;-80
2022/02/20 09:06:35;;;;;;;0.00;0.00;;;;;17.10;99918.00;;;;5046351;28;20412;-79
2022/02/20 09:09:05;;;;;;;0.00;0.00;;;;;17.00;99929.00;;;;5044700;28;20053;-80
2022/02/20 09:11:34;;;;;;;0.00;0.00;;;;;17.00;99927.00;;;;5046144;28;20040;-78
2022/02/20 09:14:04;;;;;;;0.00;0.00;;;;;17.00;99933.00;;;;5045657;28;20086;-79
2022/02/20 09:16:33;;;;;;;0.00;0.00;;;;;17.00;99920.00;;;;5046145;28;20111;-82
2022/02/20 09:19:05;;;;;;;0.00;0.00;;;;;17.00;99945.00;;;;5046543;28;20060;-80
2022/02/20 09:21:34;;;;;;;0.00;0.00;;;;;17.10;99947.00;;;;5045234;28;20397;-81
2022/02/20 09:24:04;;;;;;;0.00;0.00;;;;;17.20;99927.00;;;;5046401;28;20418;-80
2022/02/20 09:26:34;;;;;;;0.00;0.00;;;;;17.30;99946.00;;;;5045481;28;20045;-81
2022/02/20 09:29:03;;;;;;;0.00;0.00;;;;;17.20;99942.00;;;;5046286;28;20060;-80
2022/02/20 09:31:33;;;;;;;0.00;0.00;;;;;17.20;99939.00;;;;5045903;28;20049;-80
2022/02/20 09:34:02;;;;;;;0.90;0.90;;;;;17.30;99954.00;;;;5045586;28;20111;-79
2022/02/20 09:36:32;;;;;;;0.00;0.00;;;;;17.30;99946.00;;;;5045774;28;20049;-80
2022/02/20 09:39:03;;;;;;;0.00;0.00;;;;;17.40;99947.00;;;;5045108;28;21049;-80
2022/02/20 09:41:32;;;;;;;0.00;0.00;;;;;17.50;99947.00;;;;5046069;28;20128;-80
2022/02/20 09:44:03;;;;;;;0.00;0.00;;;;;17.60;99946.00;;;;5046406;28;20475;-79
2022/02/20 09:46:33;;;;;;;;;;;;;17.60;99944.00;;;;5047118;28;20048;-79
2022/02/20 09:49:02;;;;;;;0.00;0.00;;;;;17.70;99955.00;;;;5049245;28;19971;-78
2022/02/20 09:51:32;;;;;;;0.00;0.00;;;;;17.90;99952.00;;;;5048958;28;20110;-78
2022/02/20 09:54:01;;;;;;;0.00;0.00;;;;;17.90;99950.00;;;;5048973;28;20166;-80
2022/02/20 09:56:31;;;;;;;0.00;0.00;;;;;18.10;99967.00;;;;5048330;28;20045;-81
2022/02/20 09:59:01;;;;;;;0.00;0.00;;;;;18.20;99953.00;;;;5049440;28;20049;-80
2022/02/20 10:02:06;;;;;;;0.00;0.00;;;;;18.40;99964.00;;;;5048950;28;20094;-80
2022/02/20 10:04:56;;;;;;;0.00;0.00;;;;;18.60;99961.00;;;;5049440;28;20061;-79
2022/02/20 10:07:26;;;;;;;0.00;0.00;;;;;18.80;99966.00;;;;5048943;28;20091;-80
2022/02/20 10:09:58;;;;;;;0.00;0.00;;;;;19.10;99968.00;;;;5048805;28;20106;-80
2022/02/20 10:24:17;;;;;;;0.38;0.15;;;;;23.90;99824.00;;;;5124499;27;20971;-80
2022/02/20 10:27:09;;;;;;;0.00;0.00;;;;;25.30;99821.00;;;;5124590;28;20059;-78
2022/02/20 10:30:12;;;;;;;0.00;0.00;;;;;25.90;99835.00;;;;5124392;28;20049;-78
2022/02/20 10:32:44;;;;;;;0.00;0.00;;;;;26.20;99837.00;;;;5124817;27;20739;-78
2022/02/20 10:35:16;;;;;;;0.00;0.00;;;;;26.60;99834.00;;;;5123510;28;20126;-78
2022/02/20 10:37:46;;;;;;;0.00;0.00;;;;;27.00;99843.00;;;;5124375;27;20131;-78
2022/02/20 10:40:27;;;;;;;0.00;0.00;;;;;27.50;99842.00;;;;5123603;27;20066;-77
2022/02/20 10:43:00;;;;;;;0.00;0.00;;;;;28.10;99843.00;;;;5124556;27;20170;-79
2022/02/20 10:45:34;;;;;;;0.00;0.00;;;;;28.90;99847.00;;;;5124497;27;20100;-78
2022/02/20 10:48:14;;;;;;;0.00;0.00;;;;;29.30;99840.00;;;;5125400;27;20035;-78
2022/02/20 10:50:44;;;;;;;0.00;0.00;;;;;29.00;99862.00;;;;5122506;28;20074;-79
2022/02/20 10:53:23;;;;;;;0.38;0.35;;;;;29.50;99851.00;;;;5124147;27;20054;-78
2022/02/20 10:55:54;;;;;;;0.00;0.00;;;;;30.30;99838.00;;;;5123676;27;20051;-81
2022/02/20 10:58:28;;;;;;;0.17;0.17;;;;;31.20;99850.00;;;;5124030;27;20486;-77
2022/02/20 11:01:00;;;;;;;0.00;0.00;;;;;31.60;99841.00;;;;5105720;28;20521;-76
2022/02/20 11:03:33;;;;;;;0.00;0.00;;;;;31.70;99850.00;;;;5123558;27;20124;-77
2022/02/20 11:06:03;;;;;;;0.00;0.00;;;;;31.10;99856.00;;;;5123449;27;20500;-78
2022/02/20 11:08:32;;;;;;;0.00;0.00;;;;;30.60;99857.00;;;;5105041;28;20062;-77
2022/02/20 11:11:36;;;;;;;0.00;0.00;;;;;31.00;99835.00;;;;5122180;28;20054;-76
2022/02/20 11:13:56;;;;;;;0.10;0.10;;;;;30.70;99837.00;;;;5123006;27;20040;-78
2022/02/20 11:16:26;;;;;;;0.00;0.00;;;;;31.00;99846.00;;;;5121658;28;20052;-77
2022/02/20 11:18:57;;;;;;;0.00;0.00;;;;;31.30;99817.00;;;;5123944;28;20219;-79
2022/02/20 11:21:27;;;;;;;0.00;0.00;;;;;31.70;99812.00;;;;5123209;27;20043;-80
2022/02/20 11:24:00;;;;;;;1.95;1.85;;;;;31.60;99824.00;;;;5115729;27;20056;-80
2022/02/20 11:26:35;;;;;;;0.10;0.10;;;;;31.60;99799.00;;;;5109697;28;20047;-79
2022/02/20 11:29:06;;;;;;;0.00;0.00;;;;;32.00;99824.00;;;;5108429;28;20081;-77
2022/02/20 11:31:35;;;;;;;0.00;0.00;;;;;32.50;99811.00;;;;5107527;28;20048;-77
2022/02/20 11:34:06;;;;;;;0.00;0.00;;;;;32.70;99803.00;;;;5108904;28;20429;-78
2022/02/20 11:36:36;;;;;;;0.10;0.10;;;;;33.40;99794.00;;;;5109916;28;20044;-78
2022/02/20 11:39:12;;;;;;;0.55;0.17;;;;;33.90;99819.00;;;;5108940;28;20456;-78
2022/02/20 11:42:05;;;;;;;0.00;0.00;;;;;34.00;99810.00;;;;5109677;28;20063;-79
2022/02/20 11:44:52;;;;;;;0.00;0.00;;;;;33.90;99801.00;;;;5108581;28;20559;-79
2022/02/20 11:47:35;;;;;;;0.15;0.15;;;;;34.00;99802.00;;;;5106897;28;20093;-81
2022/02/20 11:50:16;;;;;;;0.00;0.00;;;;;35.10;99809.00;;;;5108871;28;20050;-79
2022/02/20 11:52:57;;;;;;;0.00;0.00;;;;;34.60;99806.00;;;;5108783;28;20049;-79
2022/02/20 11:55:36;;;;;;;0.00;0.00;;;;;33.90;99828.00;;;;5107049;28;20083;-77
2022/02/20 11:58:20;;;;;;;0.00;0.00;;;;;34.00;99841.00;;;;5108852;28;20616;-81
2022/02/20 12:01:03;;;;;;;0.08;0.08;;;;;34.00;99858.00;;;;5108104;28;20055;-80
2022/02/20 12:03:52;;;;;;;0.00;0.00;;;;;33.70;99864.00;;;;5108736;28;20573;-79
2022/02/20 12:06:24;;;;;;;0.00;0.00;;;;;33.70;99866.00;;;;5107237;28;20043;-78
2022/02/20 12:08:59;;;;;;;0.00;0.00;;;;;33.60;99877.00;;;;5108814;28;20042;-79
2022/02/20 12:11:44;;;;;;;0.00;0.00;;;;;33.30;99917.00;;;;5108992;28;20038;-79
2022/02/20 12:14:25;;;;;;;0.00;0.00;;;;;33.40;99948.00;;;;5109745;28;20047;-78
2022/02/20 12:16:57;;;;;;;0.00;0.00;;;;;32.60;99962.00;;;;5107609;28;20499;-78
2022/02/20 12:19:39;;;;;;;0.00;0.00;;;;;32.30;99968.00;;;;5107307;28;20570;-79
2022/02/20 12:22:22;;;;;;;0.10;0.10;;;;;31.90;99965.00;;;;5108308;28;20515;-78
2022/02/20 12:25:12;;;;;;;0.00;0.00;;;;;31.20;99982.00;;;;5107200;28;20044;-79
2022/02/20 12:27:42;;;;;;;0.40;0.40;;;;;31.20;99981.00;;;;5107672;28;20497;-80
2022/02/20 12:30:15;;;;;;;0.00;0.00;;;;;31.50;99982.00;;;;5106723;28;20036;-80
2022/02/20 12:32:50;;;;;;;0.00;0.00;;;;;32.30;99983.00;;;;5106789;28;20039;-78
2022/02/20 12:35:22;;;;;;;0.00;0.00;;;;;32.30;99971.00;;;;5107865;28;20070;-78
2022/02/20 12:37:55;;;;;;;0.00;0.00;;;;;32.60;99970.00;;;;5108184;28;20047;-79
2022/02/20 12:40:31;;;;;;;0.22;0.10;;;;;32.80;99984.00;;;;5108405;28;20044;-77
2022/02/20 12:43:10;;;;;;;0.00;0.00;;;;;32.50;99986.00;;;;5106216;28;20047;-79
2022/02/20 12:45:44;;;;;;;0.00;0.00;;;;;32.90;99982.00;;;;5108106;28;20734;-78
2022/02/20 12:48:16;;;;;;;0.00;0.00;;;;;33.80;99987.00;;;;5106611;28;20071;-78
2022/02/20 12:50:49;;;;;;;0.00;0.00;;;;;33.80;99980.00;;;;5107177;28;20047;-79
2022/02/20 12:53:19;;;;;;;0.00;0.00;;;;;33.60;99993.00;;;;5107759;28;20067;-78
2022/02/20 12:55:49;;;;;;;0.00;0.00;;;;;33.80;99999.00;;;;5108647;28;20039;-79
2022/02/20 12:58:21;;;;;;;0.00;0.00;;;;;33.90;99989.00;;;;5106762;28;20039;-78
2022/02/20 13:00:51;;;;;;;0.00;0.00;;;;;34.30;99988.00;;;;5107762;28;20051;-79